Time;durP1;ratioP1;P1;durP2;ratioP2;P2;SDS_P1;SDS_P2;PMS_P1;PMS_P2;Temp;Humidity;BMP_temperature;BMP_pressure;BME280_temperature;BME280_humidity;BME280_pressure;Samples;Min_cycle;Max_cycle;Signal;HPM_P1;HPM_P2
2020/12/16 00:01:03;;;;;;;14.97;13.63;;;7.30;99.90;;;;;;5089696;28;20661;-92
2020/12/16 00:03:29;;;;;;;14.00;12.67;;;7.20;99.90;;;;;;5088904;28;20820;-93
2020/12/16 00:05:57;;;;;;;15.93;14.53;;;7.10;99.90;;;;;;5089463;28;20608;-92
2020/12/16 00:08:24;;;;;;;13.90;12.50;;;7.10;99.90;;;;;;5089869;28;20641;-92
2020/12/16 00:10:50;;;;;;;14.40;13.10;;;7.00;99.90;;;;;;5090471;28;20671;-92
2020/12/16 00:13:18;;;;;;;16.87;14.07;;;7.00;99.90;;;;;;5089862;28;20953;-93
2020/12/16 00:15:46;;;;;;;15.67;14.27;;;7.00;99.90;;;;;;5089486;28;20965;-94
2020/12/16 00:18:13;;;;;;;14.73;13.53;;;6.90;99.90;;;;;;5090266;28;20988;-93
2020/12/16 00:20:39;;;;;;;16.37;14.67;;;6.90;99.90;;;;;;5088166;28;20673;-91
2020/12/16 00:23:08;;;;;;;16.40;14.77;;;6.80;99.90;;;;;;5093188;28;20625;-91
2020/12/16 00:25:34;;;;;;;16.87;15.27;;;6.90;99.90;;;;;;5090591;28;20683;-90
2020/12/16 00:28:00;;;;;;;17.30;14.73;;;6.90;99.90;;;;;;5093167;28;20629;-90
2020/12/16 00:30:27;;;;;;;23.87;15.10;;;6.80;99.90;;;;;;5088003;28;21287;-90
2020/12/16 00:32:54;;;;;;;16.27;14.70;;;6.80;99.90;;;;;;5092321;28;20679;-91
2020/12/16 00:35:20;;;;;;;16.80;15.20;;;6.70;99.90;;;;;;5093526;28;20713;-90
2020/12/16 00:37:46;;;;;;;17.40;15.70;;;6.70;99.90;;;;;;5091427;28;20639;-91
2020/12/16 00:40:16;;;;;;;18.13;15.50;;;6.80;99.90;;;;;;5094296;28;20744;-89
2020/12/16 00:42:46;;;;;;;18.33;15.80;;;6.80;99.90;;;;;;5086609;28;20618;-90
2020/12/16 00:45:13;;;;;;;16.80;15.20;;;6.70;99.90;;;;;;5092604;28;21064;-90
2020/12/16 00:47:40;;;;;;;16.20;14.60;;;6.70;99.90;;;;;;5094079;28;20635;-91
2020/12/16 00:50:08;;;;;;;16.37;14.80;;;6.60;99.90;;;;;;5093506;28;20650;-90
2020/12/16 00:52:35;;;;;;;18.10;16.30;;;6.60;99.90;;;;;;5090758;28;20627;-90
2020/12/16 00:55:01;;;;;;;17.30;15.53;;;6.60;99.90;;;;;;5085148;28;21213;-90
2020/12/16 00:57:29;;;;;;;16.40;14.80;;;6.60;99.90;;;;;;5091601;28;20625;-91
2020/12/16 00:59:55;;;;;;;19.90;17.90;;;6.60;99.90;;;;;;5091468;28;20682;-89
2020/12/16 01:02:21;;;;;;;18.10;16.53;;;6.70;99.90;;;;;;5091773;28;21181;-90
2020/12/16 01:04:48;;;;;;;18.67;16.77;;;6.70;99.90;;;;;;5088679;28;20638;-89
2020/12/16 01:07:15;;;;;;;16.40;15.00;;;6.70;99.90;;;;;;5091923;28;20627;-89
2020/12/16 01:09:41;;;;;;;16.40;15.00;;;6.70;99.90;;;;;;5091639;28;20652;-90
2020/12/16 01:12:07;;;;;;;14.70;13.47;;;6.70;99.90;;;;;;5090671;28;20652;-89
2020/12/16 01:14:37;;;;;;;15.07;13.50;;;6.80;99.90;;;;;;5109860;28;20630;-90
2020/12/16 01:17:03;;;;;;;15.40;14.10;;;6.80;99.90;;;;;;5118265;28;20611;-90
2020/12/16 01:19:29;;;;;;;16.20;14.60;;;6.90;99.90;;;;;;5098247;28;20650;-90
2020/12/16 01:21:56;;;;;;;15.10;13.63;;;7.00;99.90;;;;;;5094594;28;20767;-90
2020/12/16 01:24:26;;;;;;;14.57;13.27;;;7.00;99.90;;;;;;5095687;28;20640;-90
2020/12/16 01:26:54;;;;;;;14.23;13.03;;;7.00;99.90;;;;;;5093124;28;20626;-88
2020/12/16 01:29:21;;;;;;;14.47;13.07;;;6.90;99.90;;;;;;5091798;28;20633;-89
2020/12/16 01:31:49;;;;;;;16.10;14.43;;;7.00;99.90;;;;;;5092323;28;20632;-90
2020/12/16 01:34:19;;;;;;;15.77;14.33;;;7.10;99.90;;;;;;5093592;28;21041;-89
2020/12/16 01:36:46;;;;;;;15.17;13.87;;;7.20;99.90;;;;;;5094743;28;20653;-90
2020/12/16 01:39:15;;;;;;;16.17;14.77;;;7.20;99.90;;;;;;5091453;28;21614;-90
2020/12/16 01:41:44;;;;;;;13.70;12.47;;;7.20;99.90;;;;;;5101226;28;20633;-91
2020/12/16 01:44:12;;;;;;;15.63;14.03;;;7.20;99.90;;;;;;5092668;28;20618;-93
2020/12/16 01:46:47;;;;;;;13.37;12.17;;;7.20;99.90;;;;;;5093519;28;20601;-91
2020/12/16 01:49:13;;;;;;;13.10;11.83;;;7.30;99.90;;;;;;5114921;22;20654;-91
2020/12/16 01:51:43;;;;;;;14.23;12.93;;;7.30;99.90;;;;;;5086215;28;20638;-92
2020/12/16 01:54:14;;;;;;;14.43;13.03;;;7.20;99.90;;;;;;5090548;28;20631;-92
2020/12/16 01:56:43;;;;;;;15.43;13.83;;;7.20;99.90;;;;;;5089525;28;20621;-92
2020/12/16 01:59:15;;;;;;;13.00;11.87;;;7.40;99.90;;;;;;5065047;28;21577;-91
2020/12/16 02:01:43;;;;;;;14.57;13.33;;;7.40;99.90;;;;;;5088869;28;20703;-92
2020/12/16 02:04:17;;;;;;;15.60;14.10;;;7.50;99.90;;;;;;5082024;28;21223;-90
2020/12/16 02:06:48;;;;;;;14.03;12.63;;;7.50;99.90;;;;;;5088359;28;20655;-90
2020/12/16 02:09:14;;;;;;;14.80;13.37;;;7.50;99.90;;;;;;5087453;28;20705;-91
2020/12/16 02:11:42;;;;;;;19.23;14.53;;;7.50;99.90;;;;;;5089555;28;20638;-92
2020/12/16 02:14:10;;;;;;;14.77;13.20;;;7.50;99.90;;;;;;5084340;28;20622;-92
2020/12/16 02:16:37;;;;;;;14.90;13.20;;;7.50;99.90;;;;;;5084285;28;20644;-92
2020/12/16 02:19:04;;;;;;;14.17;12.70;;;7.50;99.90;;;;;;5084310;28;21189;-91
2020/12/16 02:21:33;;;;;;;16.20;13.10;;;7.50;99.90;;;;;;5082711;28;20646;-94
2020/12/16 02:24:04;;;;;;;13.30;12.13;;;7.50;99.90;;;;;;5086762;28;20634;-92
2020/12/16 02:26:34;;;;;;;13.50;12.40;;;7.50;99.90;;;;;;5088487;28;20824;-92
2020/12/16 02:29:00;;;;;;;13.00;11.80;;;7.50;99.90;;;;;;5081818;28;20618;-92
2020/12/16 02:31:29;;;;;;;13.53;12.23;;;7.40;99.90;;;;;;5081702;28;20637;-92
2020/12/16 02:33:56;;;;;;;12.87;11.77;;;7.40;99.90;;;;;;5088980;28;20636;-92
2020/12/16 02:36:22;;;;;;;13.10;11.30;;;7.40;99.90;;;;;;5081421;28;20704;-91
2020/12/16 02:38:51;;;;;;;12.77;11.57;;;7.30;99.90;;;;;;5087174;28;20584;-93
2020/12/16 02:41:18;;;;;;;13.03;11.80;;;7.30;99.90;;;;;;5092219;28;20650;-92
2020/12/16 02:43:45;;;;;;;13.33;12.00;;;7.30;99.90;;;;;;5101676;28;20609;-93
2020/12/16 02:46:13;;;;;;;11.97;10.80;;;7.30;99.90;;;;;;5079070;28;20634;-89
2020/12/16 02:48:40;;;;;;;13.23;11.93;;;7.20;99.90;;;;;;5095972;28;21227;-89
2020/12/16 02:51:07;;;;;;;12.27;11.20;;;7.20;99.90;;;;;;5083938;28;20662;-91
2020/12/16 02:53:34;;;;;;;13.30;12.00;;;7.10;99.90;;;;;;5087895;28;21154;-90
2020/12/16 02:56:01;;;;;;;12.70;11.60;;;7.20;99.90;;;;;;5088346;28;20654;-90
2020/12/16 02:58:27;;;;;;;12.23;11.20;;;7.20;99.90;;;;;;5085008;28;20804;-89
2020/12/16 03:00:55;;;;;;;12.63;11.53;;;7.10;99.90;;;;;;5084854;28;20677;-90
2020/12/16 03:03:21;;;;;;;12.60;11.50;;;7.10;99.90;;;;;;5083170;28;21066;-90
2020/12/16 03:05:47;;;;;;;12.60;11.47;;;7.00;99.90;;;;;;5079576;28;20652;-89
2020/12/16 03:08:14;;;;;;;13.37;12.27;;;7.10;99.90;;;;;;5079564;28;20617;-90
2020/12/16 03:10:40;;;;;;;15.83;12.93;;;7.10;99.90;;;;;;5078501;28;20743;-91
2020/12/16 03:13:06;;;;;;;18.27;16.13;;;7.20;99.90;;;;;;5082648;28;21209;-91
2020/12/16 03:15:33;;;;;;;17.43;15.57;;;7.20;99.90;;;;;;5084277;28;21033;-89
2020/12/16 03:18:00;;;;;;;20.43;15.07;;;7.10;99.90;;;;;;5085705;28;20651;-92
2020/12/16 03:20:28;;;;;;;20.03;16.00;;;7.10;99.90;;;;;;5075137;28;20672;-91
2020/12/16 03:22:54;;;;;;;14.77;13.33;;;7.10;99.90;;;;;;5077553;28;20914;-91
2020/12/16 03:25:20;;;;;;;14.83;13.43;;;7.00;99.90;;;;;;5080033;28;20644;-89
2020/12/16 03:27:46;;;;;;;15.57;14.00;;;7.00;99.90;;;;;;5083053;28;20609;-89
2020/12/16 03:30:13;;;;;;;15.23;13.80;;;7.20;99.90;;;;;;5079040;28;21099;-89
2020/12/16 03:32:39;;;;;;;13.90;12.50;;;7.10;99.90;;;;;;5073282;28;20677;-90
2020/12/16 03:35:07;;;;;;;17.23;15.60;;;7.10;99.90;;;;;;5078154;28;20680;-90
2020/12/16 03:37:34;;;;;;;16.93;14.70;;;7.10;99.90;;;;;;5076792;28;21323;-89
2020/12/16 03:40:01;;;;;;;19.63;14.87;;;7.10;99.90;;;;;;5080414;28;20661;-90
2020/12/16 03:42:27;;;;;;;16.83;15.00;;;7.10;99.90;;;;;;5083581;28;20723;-92
2020/12/16 03:44:56;;;;;;;20.83;17.53;;;7.00;99.90;;;;;;5082667;28;20629;-92
2020/12/16 03:47:22;;;;;;;38.37;17.33;;;6.90;99.90;;;;;;5082786;28;20636;-93
2020/12/16 03:49:50;;;;;;;27.13;17.43;;;6.80;99.90;;;;;;5080199;28;20741;-91
2020/12/16 03:52:18;;;;;;;26.23;17.70;;;6.80;99.90;;;;;;5077565;28;20670;-91
2020/12/16 03:54:45;;;;;;;18.83;17.03;;;6.80;99.90;;;;;;5080079;28;20648;-92
2020/12/16 03:57:15;;;;;;;22.87;17.03;;;6.90;99.90;;;;;;5079226;28;20622;-92
2020/12/16 03:59:42;;;;;;;33.10;16.73;;;6.90;99.90;;;;;;5081443;28;20996;-92
2020/12/16 04:02:11;;;;;;;17.53;15.70;;;6.90;99.90;;;;;;5087243;28;21019;-91
2020/12/16 04:04:39;;;;;;;20.13;18.03;;;6.80;99.90;;;;;;5083951;28;20609;-92
2020/12/16 04:07:06;;;;;;;20.17;18.23;;;6.80;99.90;;;;;;5062619;28;20593;-91
2020/12/16 04:09:37;;;;;;;39.10;19.07;;;6.80;99.90;;;;;;5062197;28;20638;-93
2020/12/16 04:12:05;;;;;;;20.03;17.10;;;6.70;99.90;;;;;;5083217;28;20665;-92
2020/12/16 04:14:31;;;;;;;19.63;17.77;;;6.70;99.90;;;;;;5076386;28;20606;-93
2020/12/16 04:16:58;;;;;;;17.90;16.30;;;6.70;99.90;;;;;;5087261;28;20620;-93
2020/12/16 04:19:24;;;;;;;18.20;16.60;;;6.60;99.90;;;;;;5086545;28;20798;-91
2020/12/16 04:21:55;;;;;;;15.87;14.60;;;6.70;99.90;;;;;;5078689;28;20652;-92
2020/12/16 04:24:21;;;;;;;15.77;14.30;;;6.70;99.90;;;;;;5083849;28;20874;-93
2020/12/16 04:26:58;;;;;;;13.87;12.67;;;6.70;99.90;;;;;;5086544;28;21181;-92
2020/12/16 04:29:27;;;;;;;14.03;12.73;;;6.80;99.90;;;;;;5079987;28;20616;-92
2020/12/16 04:31:54;;;;;;;14.03;12.93;;;6.70;99.90;;;;;;5081271;28;20657;-92
2020/12/16 04:34:20;;;;;;;14.77;13.37;;;6.60;99.90;;;;;;5078221;28;21032;-93
2020/12/16 04:36:49;;;;;;;14.47;13.10;;;6.60;99.90;;;;;;5081942;28;20636;-92
2020/12/16 04:39:18;;;;;;;15.03;13.73;;;6.60;99.90;;;;;;5076239;28;20697;-91
2020/12/16 04:41:51;;;;;;;15.10;13.67;;;6.50;99.90;;;;;;5078542;28;20652;-92
2020/12/16 04:44:18;;;;;;;14.23;12.87;;;6.50;99.90;;;;;;5084555;28;20640;-91
2020/12/16 04:46:46;;;;;;;13.90;12.70;;;6.50;99.90;;;;;;5083976;28;20633;-92
2020/12/16 04:49:13;;;;;;;14.47;13.27;;;6.50;99.90;;;;;;5082201;28;20682;-91
2020/12/16 04:51:42;;;;;;;15.17;13.87;;;6.40;99.90;;;;;;5081405;28;21038;-90
2020/12/16 04:54:08;;;;;;;19.20;13.47;;;6.40;99.90;;;;;;5085557;28;20620;-90
2020/12/16 04:56:37;;;;;;;85.87;16.47;;;6.40;99.90;;;;;;5084517;28;20642;-91
2020/12/16 04:59:08;;;;;;;58.87;14.27;;;6.30;99.90;;;;;;5078356;28;20738;-92
2020/12/16 05:01:41;;;;;;;402.77;33.20;;;6.30;99.90;;;;;;5079971;28;20665;-91
2020/12/16 05:04:09;;;;;;;317.50;28.30;;;6.30;99.90;;;;;;5086001;28;20662;-92
2020/12/16 05:06:37;;;;;;;280.83;25.10;;;6.30;99.90;;;;;;5082484;28;21163;-91
2020/12/16 05:09:06;;;;;;;302.43;29.37;;;6.20;99.90;;;;;;5088986;28;20649;-90
2020/12/16 05:11:38;;;;;;;183.63;23.00;;;6.10;99.90;;;;;;5085236;28;20634;-91
2020/12/16 05:14:12;;;;;;;310.40;28.67;;;6.00;99.90;;;;;;5086126;28;20748;-91
2020/12/16 05:16:53;;;;;;;262.33;26.37;;;5.80;99.90;;;;;;5083987;28;20715;-90
2020/12/16 05:19:36;;;;;;;234.80;24.50;;;6.00;99.90;;;;;;5086734;28;20688;-90
2020/12/16 05:22:17;;;;;;;173.67;19.70;;;6.00;99.90;;;;;;5051299;28;20623;-92
2020/12/16 05:24:47;;;;;;;155.60;18.60;;;6.00;99.90;;;;;;5083685;28;21019;-91
2020/12/16 05:27:16;;;;;;;188.03;20.03;;;5.80;99.90;;;;;;5081384;28;20984;-89
2020/12/16 05:29:43;;;;;;;168.50;20.20;;;5.80;99.90;;;;;;5079417;28;20611;-90
2020/12/16 05:32:26;;;;;;;173.53;18.87;;;5.80;99.90;;;;;;5087196;28;20603;-90
2020/12/16 05:34:53;;;;;;;109.73;18.80;;;5.80;99.90;;;;;;5087020;28;20654;-90
2020/12/16 05:37:32;;;;;;;165.20;20.93;;;5.80;99.90;;;;;;5084967;28;20680;-91
2020/12/16 05:40:01;;;;;;;122.93;19.13;;;5.70;99.90;;;;;;5083139;28;20666;-91
2020/12/16 05:42:34;;;;;;;110.10;18.53;;;5.70;99.90;;;;;;5082172;28;21190;-90
2020/12/16 05:45:12;;;;;;;98.70;19.23;;;5.70;99.90;;;;;;5080349;28;20701;-90
2020/12/16 05:47:41;;;;;;;84.20;16.83;;;5.60;99.90;;;;;;5066079;28;20661;-90
2020/12/16 05:50:18;;;;;;;87.83;17.17;;;5.70;99.90;;;;;;5079092;28;20635;-90
2020/12/16 05:52:45;;;;;;;91.03;16.33;;;5.70;99.90;;;;;;5083475;28;21329;-90
2020/12/16 05:55:12;;;;;;;96.33;16.63;;;5.70;99.90;;;;;;5088567;28;20634;-91
2020/12/16 05:57:38;;;;;;;33.33;15.63;;;5.80;99.90;;;;;;5086662;28;21258;-89
2020/12/16 06:00:10;;;;;;;65.13;17.50;;;5.70;99.90;;;;;;5082102;28;20671;-89
2020/12/16 06:02:37;;;;;;;60.00;16.10;;;5.70;99.90;;;;;;5081940;28;21123;-89
2020/12/16 06:05:10;;;;;;;53.97;15.57;;;5.70;99.90;;;;;;5083414;28;20729;-89
2020/12/16 06:07:38;;;;;;;41.23;14.90;;;5.80;99.90;;;;;;5092307;28;20666;-89
2020/12/16 06:10:06;;;;;;;35.53;14.87;;;5.70;99.90;;;;;;5108798;28;20630;-89
2020/12/16 06:12:39;;;;;;;34.90;15.23;;;5.70;99.90;;;;;;5093869;28;21210;-89
2020/12/16 06:15:10;;;;;;;56.33;15.77;;;5.70;99.90;;;;;;5076174;28;20626;-89
2020/12/16 06:17:40;;;;;;;27.80;15.30;;;5.70;99.90;;;;;;5081491;28;20669;-89
2020/12/16 06:20:14;;;;;;;21.67;14.70;;;5.70;99.90;;;;;;5091384;28;20631;-90
2020/12/16 06:22:42;;;;;;;16.67;12.23;;;5.70;99.90;;;;;;5092225;28;20635;-90
2020/12/16 06:25:12;;;;;;;16.80;13.57;;;5.70;99.90;;;;;;5091727;28;20624;-88
2020/12/16 06:27:43;;;;;;;14.70;13.40;;;5.70;99.90;;;;;;5081481;28;20700;-88
2020/12/16 06:30:16;;;;;;;30.27;16.30;;;5.80;99.90;;;;;;5085317;28;21154;-87
2020/12/16 06:32:48;;;;;;;19.40;14.83;;;5.90;99.90;;;;;;5085379;28;20676;-88
2020/12/16 06:35:20;;;;;;;15.07;13.47;;;5.80;99.90;;;;;;5083723;28;20612;-88
2020/12/16 06:37:47;;;;;;;15.07;13.70;;;5.90;99.90;;;;;;5086767;28;21143;-87
2020/12/16 06:40:42;;;;;;;14.63;13.13;;;5.80;99.90;;;;;;5075799;28;21036;-87
2020/12/16 06:43:37;;;;;;;14.30;12.90;;;5.90;99.90;;;;;;5067720;28;20635;-87
2020/12/16 06:46:26;;;;;;;12.93;11.63;;;5.90;99.90;;;;;;5081051;28;20676;-88
2020/12/16 06:48:52;;;;;;;12.10;10.93;;;6.10;99.90;;;;;;5078621;28;20688;-88
2020/12/16 06:51:21;;;;;;;12.30;11.20;;;6.00;99.90;;;;;;5085075;28;20636;-88
2020/12/16 06:53:48;;;;;;;11.67;10.57;;;6.00;99.90;;;;;;5078002;28;21263;-88
2020/12/16 06:56:18;;;;;;;13.57;12.27;;;6.00;99.90;;;;;;5079601;28;20630;-88
2020/12/16 06:58:45;;;;;;;12.00;11.10;;;5.90;99.90;;;;;;5083137;28;20649;-88
2020/12/16 07:01:11;;;;;;;12.00;10.77;;;6.00;99.90;;;;;;5078101;28;21052;-88
2020/12/16 07:03:38;;;;;;;11.83;10.83;;;6.00;99.90;;;;;;5061400;28;20689;-87
2020/12/16 07:06:04;;;;;;;11.33;10.33;;;6.10;99.90;;;;;;5077958;28;20637;-88
2020/12/16 07:08:32;;;;;;;11.83;10.83;;;6.00;99.90;;;;;;5081132;28;20656;-88
2020/12/16 07:10:58;;;;;;;11.90;10.90;;;6.10;99.90;;;;;;5080454;28;20618;-88
2020/12/16 07:13:29;;;;;;;12.33;11.23;;;6.10;99.90;;;;;;5081775;28;20638;-87
2020/12/16 07:15:58;;;;;;;11.77;10.87;;;6.00;99.90;;;;;;5083438;28;20940;-88
2020/12/16 07:18:31;;;;;;;12.00;11.00;;;6.10;99.90;;;;;;5078134;28;20702;-88
2020/12/16 07:21:29;;;;;;;11.63;10.63;;;6.10;99.90;;;;;;5082087;28;20890;-88
2020/12/16 07:24:16;;;;;;;11.47;10.50;;;6.20;99.90;;;;;;5075209;28;21190;-88
2020/12/16 07:26:46;;;;;;;12.00;10.90;;;6.20;99.90;;;;;;5083379;28;21168;-87
2020/12/16 07:29:30;;;;;;;11.23;10.37;;;6.10;99.90;;;;;;5082432;28;20652;-89
2020/12/16 07:32:03;;;;;;;11.20;10.23;;;6.20;99.90;;;;;;5079178;28;20651;-88
2020/12/16 07:34:30;;;;;;;12.10;11.20;;;6.10;99.90;;;;;;5077861;28;21223;-87
2020/12/16 07:36:59;;;;;;;12.30;11.40;;;6.10;99.90;;;;;;5087058;28;20636;-88
2020/12/16 07:39:27;;;;;;;13.33;12.30;;;6.10;99.90;;;;;;5083450;28;21119;-89
2020/12/16 07:41:55;;;;;;;13.87;12.67;;;6.10;99.90;;;;;;5083906;28;20691;-88
2020/12/16 07:44:21;;;;;;;13.83;12.63;;;6.00;99.90;;;;;;5082265;28;20646;-88
2020/12/16 07:46:53;;;;;;;14.87;13.67;;;6.00;99.90;;;;;;5081848;28;20643;-88
2020/12/16 07:49:20;;;;;;;14.30;13.07;;;6.00;99.90;;;;;;5080999;28;20640;-88
2020/12/16 07:51:47;;;;;;;14.93;13.63;;;6.00;99.90;;;;;;5084860;28;21162;-87
2020/12/16 07:54:13;;;;;;;12.97;11.87;;;6.10;99.90;;;;;;5086833;28;20629;-88
2020/12/16 07:56:40;;;;;;;14.87;13.27;;;6.10;99.90;;;;;;5079853;28;20973;-89
2020/12/16 07:59:11;;;;;;;15.43;13.53;;;6.10;99.90;;;;;;5078126;28;20655;-87
2020/12/16 08:01:37;;;;;;;15.67;14.27;;;6.20;99.90;;;;;;5082370;28;21042;-88
2020/12/16 08:04:04;;;;;;;14.63;13.23;;;6.30;99.90;;;;;;5084541;28;20615;-88
2020/12/16 08:06:31;;;;;;;14.93;13.63;;;6.20;99.90;;;;;;5079726;28;21226;-90
2020/12/16 08:08:57;;;;;;;15.20;13.80;;;6.20;99.90;;;;;;5081651;28;20649;-87
2020/12/16 08:11:26;;;;;;;13.37;12.23;;;6.30;99.90;;;;;;5083271;28;20678;-90
2020/12/16 08:14:03;;;;;;;14.50;13.27;;;6.40;99.90;;;;;;5079553;28;20661;-89
2020/12/16 08:16:31;;;;;;;14.30;13.00;;;6.40;99.90;;;;;;5086013;28;20614;-88
2020/12/16 08:19:00;;;;;;;12.30;11.23;;;6.30;99.90;;;;;;5083236;28;21050;-90
2020/12/16 08:21:26;;;;;;;12.97;11.87;;;6.40;99.90;;;;;;5079957;28;20679;-86
2020/12/16 08:23:54;;;;;;;12.77;11.70;;;6.30;99.90;;;;;;5074878;28;20665;-86
2020/12/16 08:26:22;;;;;;;13.63;12.53;;;6.40;99.90;;;;;;5078288;28;20638;-88
2020/12/16 08:28:49;;;;;;;12.63;11.53;;;6.40;99.90;;;;;;5078177;28;20616;-88
2020/12/16 08:31:19;;;;;;;13.17;11.80;;;6.40;99.90;;;;;;5074735;28;21587;-87
2020/12/16 08:33:48;;;;;;;12.70;11.70;;;6.50;99.90;;;;;;5079965;28;20613;-88
2020/12/16 08:36:18;;;;;;;12.33;11.30;;;6.50;99.90;;;;;;5086238;28;21166;-88
2020/12/16 08:38:44;;;;;;;12.10;11.00;;;6.60;99.90;;;;;;5077030;28;20614;-88
2020/12/16 08:41:13;;;;;;;12.20;11.00;;;6.80;99.90;;;;;;5076090;28;21301;-88
2020/12/16 08:43:41;;;;;;;11.40;10.50;;;6.80;99.90;;;;;;5079599;28;20651;-88
2020/12/16 08:46:10;;;;;;;11.43;10.40;;;7.00;99.90;;;;;;5084631;28;20722;-89
2020/12/16 08:48:43;;;;;;;12.80;11.53;;;7.00;99.90;;;;;;5084341;28;20632;-88
2020/12/16 08:51:12;;;;;;;10.80;9.80;;;6.90;99.90;;;;;;5082556;28;20680;-88
2020/12/16 08:53:50;;;;;;;13.00;10.20;;;7.10;99.90;;;;;;5083709;28;21350;-88
2020/12/16 08:56:22;;;;;;;12.20;11.10;;;7.10;99.90;;;;;;5084008;28;21289;-89
2020/12/16 08:58:59;;;;;;;11.83;10.73;;;7.20;99.90;;;;;;5068166;28;20612;-88
2020/12/16 09:01:26;;;;;;;10.90;9.97;;;7.30;99.90;;;;;;5083136;28;20724;-88
2020/12/16 09:03:54;;;;;;;10.67;9.60;;;7.20;99.90;;;;;;5084740;28;20732;-86
2020/12/16 09:06:21;;;;;;;12.30;11.20;;;7.20;99.90;;;;;;5087907;28;20648;-87
2020/12/16 09:08:47;;;;;;;11.53;10.63;;;7.20;99.90;;;;;;5082075;28;20654;-87
2020/12/16 09:11:16;;;;;;;13.87;12.50;;;7.20;99.90;;;;;;5086118;28;21238;-88
2020/12/16 09:13:43;;;;;;;14.47;13.17;;;7.30;99.90;;;;;;5082723;28;20625;-89
2020/12/16 09:16:09;;;;;;;13.13;11.93;;;7.20;99.90;;;;;;5082069;28;20690;-89
2020/12/16 09:18:38;;;;;;;13.73;12.63;;;7.20;99.90;;;;;;5078440;28;20704;-88
2020/12/16 09:21:06;;;;;;;12.50;11.43;;;7.40;99.90;;;;;;5079039;28;20678;-89
2020/12/16 09:23:32;;;;;;;13.10;11.90;;;7.90;99.90;;;;;;5067641;28;20615;-89
2020/12/16 09:25:59;;;;;;;13.83;12.53;;;8.20;99.90;;;;;;5081000;28;20660;-90
2020/12/16 09:28:38;;;;;;;12.83;11.40;;;8.40;99.90;;;;;;5085127;28;20639;-90
2020/12/16 09:31:12;;;;;;;12.83;11.73;;;8.40;99.90;;;;;;5084782;28;20684;-89
2020/12/16 09:33:39;;;;;;;13.30;11.90;;;8.80;99.90;;;;;;5101774;28;20716;-89
2020/12/16 09:36:06;;;;;;;11.60;10.57;;;9.00;99.90;;;;;;5106129;28;20639;-87
2020/12/16 09:38:33;;;;;;;13.70;10.43;;;9.20;99.90;;;;;;5097384;28;21028;-87
2020/12/16 09:41:00;;;;;;;11.40;10.20;;;9.40;99.90;;;;;;5084647;28;20667;-88
2020/12/16 09:43:40;;;;;;;10.43;9.53;;;9.50;99.90;;;;;;5087988;28;20657;-87
2020/12/16 09:46:14;;;;;;;10.40;9.47;;;9.80;99.90;;;;;;5085449;28;20625;-88
2020/12/16 09:48:41;;;;;;;9.97;9.07;;;9.70;99.90;;;;;;5078794;28;20663;-88
2020/12/16 09:51:17;;;;;;;10.80;9.43;;;9.90;99.90;;;;;;5083995;28;20674;-87
2020/12/16 09:53:44;;;;;;;11.50;9.20;;;10.30;99.90;;;;;;5061789;28;20711;-88
2020/12/16 09:56:22;;;;;;;13.67;8.60;;;10.50;99.90;;;;;;5082041;28;20628;-88
2020/12/16 09:58:49;;;;;;;7.43;6.57;;;10.30;99.90;;;;;;5081567;28;21039;-87
2020/12/16 10:01:16;;;;;;;9.80;7.97;;;10.40;99.90;;;;;;5086376;28;20729;-88
2020/12/16 10:03:43;;;;;;;9.77;8.77;;;10.60;99.90;;;;;;5087515;28;20677;-88
2020/12/16 10:06:12;;;;;;;6.93;6.23;;;10.40;99.90;;;;;;5088644;28;21035;-91
2020/12/16 10:08:39;;;;;;;8.90;7.90;;;10.80;99.90;;;;;;5085004;28;21013;-89
2020/12/16 10:11:09;;;;;;;6.60;6.00;;;11.00;99.90;;;;;;5075146;28;21103;-89
2020/12/16 10:13:36;;;;;;;9.77;8.90;;;10.80;99.90;;;;;;5078648;28;21148;-88
2020/12/16 10:16:04;;;;;;;8.13;7.20;;;11.20;99.90;;;;;;5082061;28;20615;-88
2020/12/16 10:18:30;;;;;;;8.43;7.53;;;11.30;99.90;;;;;;5084200;28;20644;-88
2020/12/16 10:20:57;;;;;;;9.60;8.70;;;11.20;99.90;;;;;;5088619;28;20688;-89
2020/12/16 10:23:24;;;;;;;8.50;7.70;;;11.20;99.90;;;;;;5079703;28;20972;-89
2020/12/16 10:25:51;;;;;;;9.60;8.77;;;11.30;99.90;;;;;;5085672;28;20620;-89
2020/12/16 10:28:21;;;;;;;7.80;7.17;;;11.40;99.90;;;;;;5081588;28;20610;-87
2020/12/16 10:30:47;;;;;;;7.80;7.03;;;11.40;99.90;;;;;;5088139;28;21301;-88
2020/12/16 10:33:14;;;;;;;9.33;8.27;;;11.40;99.90;;;;;;5081153;28;20628;-88
2020/12/16 10:35:40;;;;;;;8.30;7.50;;;11.60;99.90;;;;;;5068425;28;20627;-89
2020/12/16 10:38:07;;;;;;;8.30;7.60;;;11.70;99.90;;;;;;5085786;28;20632;-86
2020/12/16 10:40:34;;;;;;;8.80;8.00;;;11.80;99.90;;;;;;5078431;28;20687;-86
2020/12/16 10:43:01;;;;;;;7.73;7.03;;;11.90;99.90;;;;;;5085167;28;20617;-86
2020/12/16 10:45:28;;;;;;;8.10;7.30;;;12.00;99.90;;;;;;5076312;28;20627;-86
2020/12/16 10:47:59;;;;;;;8.80;7.90;;;12.50;99.90;;;;;;5080571;28;20610;-87
2020/12/16 10:50:25;;;;;;;7.80;7.10;;;12.60;99.90;;;;;;5078759;28;21189;-87
2020/12/16 10:52:52;;;;;;;8.30;7.40;;;12.50;99.90;;;;;;5080848;28;21255;-87
2020/12/16 10:55:18;;;;;;;7.60;6.90;;;12.60;99.90;;;;;;5081241;28;20647;-89
2020/12/16 10:57:46;;;;;;;10.77;7.80;;;12.70;99.90;;;;;;5079053;28;20610;-88
2020/12/16 11:00:12;;;;;;;7.87;7.07;;;12.90;99.90;;;;;;5077288;28;20667;-88
2020/12/16 11:02:39;;;;;;;7.47;6.77;;;13.20;99.90;;;;;;5077312;28;21146;-88
2020/12/16 11:05:05;;;;;;;9.43;8.53;;;13.30;99.90;;;;;;5085908;28;20676;-88
2020/12/16 11:07:32;;;;;;;8.60;7.70;;;13.20;99.90;;;;;;5086586;28;21187;-89
2020/12/16 11:09:58;;;;;;;8.23;7.40;;;13.40;99.90;;;;;;5077715;28;20616;-88
2020/12/16 11:12:25;;;;;;;9.60;8.67;;;13.50;99.90;;;;;;5081792;28;20621;-89
2020/12/16 11:14:51;;;;;;;8.57;7.73;;;13.60;99.90;;;;;;5077765;28;20701;-91
2020/12/16 11:17:18;;;;;;;8.57;7.67;;;13.90;99.90;;;;;;5080592;28;20667;-87
2020/12/16 11:19:44;;;;;;;9.77;8.90;;;13.90;99.90;;;;;;5077027;28;20645;-88
2020/12/16 11:22:11;;;;;;;8.80;7.20;;;14.00;99.90;;;;;;5080803;28;20733;-90
2020/12/16 11:24:38;;;;;;;7.80;7.20;;;13.90;99.90;;;;;;5082341;28;20710;-88
2020/12/16 11:27:04;;;;;;;13.50;7.80;;;14.00;99.90;;;;;;5082349;28;20640;-89
2020/12/16 11:29:31;;;;;;;9.30;8.50;;;14.00;99.90;;;;;;5080903;28;20629;-89
2020/12/16 11:32:01;;;;;;;10.47;8.50;;;14.30;99.90;;;;;;5088673;28;20644;-89
2020/12/16 11:34:28;;;;;;;9.07;8.30;;;14.10;99.90;;;;;;5065321;28;20633;-90
2020/12/16 11:36:57;;;;;;;8.33;7.60;;;14.10;99.90;;;;;;5085177;28;20645;-89
2020/12/16 11:39:24;;;;;;;11.57;10.13;;;14.30;99.90;;;;;;5076133;28;20645;-90
2020/12/16 11:41:54;;;;;;;9.57;8.30;;;14.60;99.90;;;;;;5078296;28;20662;-89
2020/12/16 11:44:35;;;;;;;9.57;8.67;;;14.50;99.90;;;;;;5048968;28;21201;-90
2020/12/16 11:47:04;;;;;;;9.60;8.70;;;14.60;99.90;;;;;;5078898;28;20630;-89
2020/12/16 11:49:30;;;;;;;8.40;7.70;;;14.80;99.90;;;;;;5081372;28;20656;-91
2020/12/16 11:51:57;;;;;;;8.70;7.90;;;15.30;99.90;;;;;;5078968;28;20617;-90
2020/12/16 11:54:24;;;;;;;7.90;7.17;;;15.50;99.90;;;;;;5080941;28;20672;-91
2020/12/16 11:56:51;;;;;;;8.80;8.00;;;15.70;99.60;;;;;;5088998;28;20653;-90
2020/12/16 11:59:17;;;;;;;7.63;6.93;;;16.00;99.40;;;;;;5083573;28;20682;-92
2020/12/16 12:01:44;;;;;;;9.60;8.40;;;15.80;99.30;;;;;;5076552;28;20657;-91
2020/12/16 12:04:11;;;;;;;9.40;8.60;;;16.00;99.00;;;;;;5077445;28;21052;-90
2020/12/16 12:06:39;;;;;;;8.00;7.27;;;16.00;99.10;;;;;;5076710;28;20620;-90
2020/12/16 12:09:07;;;;;;;11.00;8.40;;;16.10;99.50;;;;;;5083419;28;20682;-90
2020/12/16 12:11:33;;;;;;;9.03;8.33;;;15.80;99.70;;;;;;5083570;28;20625;-90
2020/12/16 12:14:03;;;;;;;8.70;7.90;;;16.10;99.80;;;;;;5078006;28;21012;-92
2020/12/16 12:16:29;;;;;;;9.33;8.50;;;16.30;99.70;;;;;;5088096;28;20621;-91
2020/12/16 12:18:55;;;;;;;8.67;7.87;;;16.50;99.20;;;;;;5080039;28;21533;-91
2020/12/16 12:21:22;;;;;;;9.00;8.10;;;16.60;98.90;;;;;;5077664;28;20626;-91
2020/12/16 12:23:48;;;;;;;9.40;8.60;;;16.20;99.90;;;;;;5082834;28;20613;-91
2020/12/16 12:26:15;;;;;;;10.20;9.20;;;16.40;99.20;;;;;;5082754;28;20617;-91
2020/12/16 12:28:41;;;;;;;9.17;8.30;;;16.80;99.00;;;;;;5057684;28;20649;-90
2020/12/16 12:31:09;;;;;;;9.37;8.57;;;17.10;99.10;;;;;;5059903;28;20629;-91
2020/12/16 12:33:35;;;;;;;8.87;8.10;;;17.00;99.20;;;;;;5078236;28;20728;-91
2020/12/16 12:36:01;;;;;;;9.97;8.93;;;17.30;98.40;;;;;;5081688;28;20621;-90
2020/12/16 12:38:28;;;;;;;10.27;9.17;;;17.60;98.60;;;;;;5079291;28;20703;-92
2020/12/16 12:40:54;;;;;;;12.23;9.90;;;17.50;98.40;;;;;;5085895;28;20672;-91
2020/12/16 12:43:20;;;;;;;10.67;9.70;;;17.60;98.70;;;;;;5083307;28;20621;-90
2020/12/16 12:45:47;;;;;;;10.50;9.60;;;17.80;98.10;;;;;;5084946;28;20622;-90